Time;durP1;ratioP1;P1;durP2;ratioP2;P2;SDS_P1;SDS_P2;PMS_P1;PMS_P2;Temp;Humidity;BMP_temperature;BMP_pressure;BME280_temperature;BME280_humidity;BME280_pressure;Samples;Min_cycle;Max_cycle;Signal;HPM_P1;HPM_P2
2022/07/18 07:59:20;;;;;;;7.28;2.38;;;;;;;22.50;39.09;102060.75;5313282;28;20380;-71
2022/07/18 08:01:52;;;;;;;13.15;2.95;;;;;;;22.79;40.27;102056.22;5298764;28;20040;-70
2022/07/18 08:04:23;;;;;;;6.85;2.20;;;;;;;22.72;38.73;102051.09;5322244;28;20024;-70
2022/07/18 08:06:54;;;;;;;6.95;2.70;;;;;;;22.84;38.46;102053.19;5316375;28;20399;-70
2022/07/18 08:09:26;;;;;;;4.22;2.15;;;;;;;22.96;38.78;102060.94;5303817;28;20025;-70
2022/07/18 08:11:57;;;;;;;7.10;2.13;;;;;;;22.98;38.04;102050.97;5300950;28;20021;-70
2022/07/18 08:14:28;;;;;;;4.45;2.22;;;;;;;23.03;38.25;102051.91;5306776;28;20434;-72
2022/07/18 08:17:00;;;;;;;4.05;2.13;;;;;;;23.15;38.63;102051.97;5312140;28;20115;-71
2022/07/18 08:19:31;;;;;;;5.43;2.25;;;;;;;23.21;38.37;102048.59;5294339;28;20081;-71
2022/07/18 08:22:02;;;;;;;5.10;2.17;;;;;;;23.35;38.73;102045.44;5319604;28;20402;-70
2022/07/18 08:24:33;;;;;;;9.50;2.58;;;;;;;23.31;38.70;102040.81;5313480;28;20025;-67
2022/07/18 08:27:05;;;;;;;11.15;2.53;;;;;;;23.42;38.83;102033.56;5301029;28;20024;-68
2022/07/18 08:29:36;;;;;;;4.50;2.13;;;;;;;23.62;38.73;102038.34;5300007;28;20024;-74
2022/07/18 08:32:08;;;;;;;5.43;2.50;;;;;;;23.70;39.53;102033.75;5313173;28;20417;-71
2022/07/18 08:34:39;;;;;;;8.88;3.13;;;;;;;23.75;39.27;102036.41;5300850;28;20021;-71
2022/07/18 08:37:10;;;;;;;8.05;2.42;;;;;;;23.92;39.25;102045.84;5285482;28;20078;-71
2022/07/18 08:39:41;;;;;;;7.38;2.58;;;;;;;23.81;39.46;102051.97;5300717;28;20047;-71
2022/07/18 08:42:14;;;;;;;6.28;1.98;;;;;;;23.95;39.47;102048.78;5280959;28;20079;-72
2022/07/18 08:44:46;;;;;;;5.55;2.97;;;;;;;23.99;39.15;102052.59;5278509;28;20360;-71
2022/07/18 08:47:21;;;;;;;4.43;2.60;;;;;;;24.04;39.80;102052.34;5279363;28;20077;-71
2022/07/18 08:49:53;;;;;;;6.50;2.63;;;;;;;24.17;39.55;102056.03;5299197;28;20042;-71
2022/07/18 08:52:25;;;;;;;8.48;2.42;;;;;;;24.14;39.58;102053.09;5298721;28;20024;-72
2022/07/18 08:54:57;;;;;;;8.38;2.95;;;;;;;24.17;39.57;102047.53;5284653;28;20027;-72
2022/07/18 08:57:29;;;;;;;5.78;3.03;;;;;;;24.37;38.90;102042.09;5307584;28;20504;-71
2022/07/18 09:00:07;;;;;;;4.05;2.17;;;;;;;24.37;39.18;102039.25;5319007;28;20023;-70
2022/07/18 09:02:39;;;;;;;4.13;2.35;;;;;;;24.42;39.04;102042.69;5299858;28;20059;-70
2022/07/18 09:05:19;;;;;;;13.82;3.10;;;;;;;24.54;38.94;102046.69;5294871;28;20438;-72
2022/07/18 09:07:50;;;;;;;8.10;2.17;;;;;;;24.70;38.68;102037.09;5296296;28;20032;-68
2022/07/18 09:10:22;;;;;;;8.98;3.97;;;;;;;24.70;39.24;102042.78;5273505;28;20027;-68
2022/07/18 09:12:57;;;;;;;4.53;2.63;;;;;;;24.79;38.61;102050.31;5285018;28;20036;-68
2022/07/18 09:15:28;;;;;;;9.82;2.40;;;;;;;24.97;38.10;102048.84;5284758;28;20069;-68
2022/07/18 09:17:59;;;;;;;7.72;3.25;;;;;;;24.95;37.85;102046.38;5287204;28;20024;-68
2022/07/18 09:20:31;;;;;;;7.43;2.55;;;;;;;25.01;37.22;102048.97;5296506;28;20027;-68
2022/07/18 09:23:13;;;;;;;6.97;3.97;;;;;;;25.28;37.26;102053.84;5284628;28;20029;-68
2022/07/18 09:25:44;;;;;;;3.92;2.15;;;;;;;25.60;37.25;102049.06;5273117;28;20029;-68
2022/07/18 09:28:18;;;;;;;6.15;3.28;;;;;;;25.50;37.05;102055.28;5303500;28;20077;-68
2022/07/18 09:30:49;;;;;;;7.70;2.30;;;;;;;25.41;37.21;102048.94;5293533;28;20029;-67
2022/07/18 09:33:21;;;;;;;3.88;2.15;;;;;;;25.50;37.31;102058.13;5284845;28;20361;-68
2022/07/18 09:35:54;;;;;;;8.93;3.38;;;;;;;25.55;36.82;102052.19;5285089;28;20037;-68
2022/07/18 09:38:29;;;;;;;9.60;2.90;;;;;;;25.70;37.37;102053.41;5285770;28;20521;-68
2022/07/18 09:41:00;;;;;;;5.20;2.35;;;;;;;25.70;37.35;102055.41;5285017;28;20052;-68
2022/07/18 09:43:37;;;;;;;7.53;2.33;;;;;;;25.92;37.26;102051.97;5268710;28;20046;-68
2022/07/18 09:46:08;;;;;;;5.85;2.30;;;;;;;25.83;36.64;102051.31;5269415;28;20016;-72
2022/07/18 09:48:39;;;;;;;6.72;2.72;;;;;;;25.78;36.26;102057.25;5284857;28;20361;-72
2022/07/18 09:51:11;;;;;;;3.78;2.05;;;;;;;25.81;37.02;102056.50;5295526;28;20033;-73
2022/07/18 09:53:43;;;;;;;3.72;2.33;;;;;;;25.85;37.86;102050.94;5297356;28;20044;-72
2022/07/18 09:56:24;;;;;;;3.50;2.20;;;;;;;25.89;37.15;102049.84;5289774;28;20027;-72
2022/07/18 09:58:56;;;;;;;6.38;2.80;;;;;;;26.24;36.84;102051.97;5250690;28;20049;-73
2022/07/18 10:01:28;;;;;;;10.68;3.05;;;;;;;26.12;37.22;102044.34;5249460;28;20112;-73
2022/07/18 10:04:00;;;;;;;5.03;2.53;;;;;;;26.36;37.22;102043.34;5243417;28;20124;-74
2022/07/18 10:06:32;;;;;;;9.32;2.85;;;;;;;26.27;37.03;102039.84;5243731;28;20022;-73
2022/07/18 10:09:03;;;;;;;4.55;3.22;;;;;;;26.40;36.75;102043.41;5263359;28;20040;-73
2022/07/18 10:11:35;;;;;;;11.93;8.23;;;;;;;26.40;36.10;102038.53;5263809;28;20045;-73
2022/07/18 10:14:06;;;;;;;7.68;3.15;;;;;;;26.44;35.43;102041.47;5264608;28;20162;-73
2022/07/18 10:16:38;;;;;;;5.63;4.03;;;;;;;26.71;35.44;102036.03;5253450;28;20086;-72
2022/07/18 10:19:11;;;;;;;4.43;2.22;;;;;;;26.68;34.63;102037.59;5272135;28;20028;-73
2022/07/18 10:21:48;;;;;;;9.30;5.60;;;;;;;26.80;34.83;102037.47;5263200;28;20029;-72
2022/07/18 10:24:20;;;;;;;5.88;2.70;;;;;;;26.88;34.95;102036.41;5277163;28;20475;-73
2022/07/18 10:27:12;;;;;;;6.72;2.33;;;;;;;26.86;34.79;102033.09;5243141;28;20120;-73
2022/07/18 10:30:11;;;;;;;6.30;2.30;;;;;;;26.86;35.24;102035.94;5244363;28;20025;-74
2022/07/18 10:32:43;;;;;;;6.65;2.47;;;;;;;27.20;34.41;102036.31;5260567;28;20380;-73
2022/07/18 10:35:15;;;;;;;14.50;3.40;;;;;;;27.20;33.48;102035.47;5242929;28;20022;-74
2022/07/18 10:37:47;;;;;;;5.55;2.72;;;;;;;27.27;33.40;102036.44;5258683;28;20037;-73
2022/07/18 10:40:29;;;;;;;6.03;2.28;;;;;;;27.32;33.47;102038.16;5277010;28;20039;-73
2022/07/18 10:43:29;;;;;;;5.50;2.38;;;;;;;27.36;33.45;102021.16;5263416;28;20074;-73
2022/07/18 10:46:03;;;;;;;5.00;2.60;;;;;;;27.58;33.34;102028.06;5262967;28;20029;-73
2022/07/18 10:48:37;;;;;;;4.00;2.60;;;;;;;27.45;33.96;102030.28;5279557;28;20082;-73
2022/07/18 10:51:16;;;;;;;7.20;2.28;;;;;;;27.88;33.54;102025.38;5254527;28;20090;-74
2022/07/18 10:53:53;;;;;;;3.60;1.65;;;;;;;27.65;33.21;102029.03;5248327;28;20036;-71
2022/07/18 10:57:05;;;;;;;5.72;2.28;;;;;;;27.71;33.62;102015.28;5274033;28;20040;-71
2022/07/18 10:59:37;;;;;;;7.32;2.28;;;;;;;27.95;34.14;102016.97;5261358;28;20044;-72
2022/07/18 11:02:09;;;;;;;14.40;13.00;;;;;;;27.77;34.44;102018.66;5262638;28;20017;-71
2022/07/18 11:04:40;;;;;;;6.60;2.35;;;;;;;27.90;33.75;102017.28;5270892;28;20032;-71
2022/07/18 11:07:14;;;;;;;7.45;4.85;;;;;;;27.99;34.23;102019.88;5275486;28;20033;-72
2022/07/18 11:09:47;;;;;;;5.60;2.40;;;;;;;27.99;33.87;102017.00;5262837;28;20017;-74
2022/07/18 11:12:29;;;;;;;4.55;2.58;;;;;;;28.11;34.44;102019.66;5261783;28;20026;-74
2022/07/18 11:15:05;;;;;;;3.28;2.55;;;;;;;28.25;34.55;102001.94;5262852;28;20400;-75
2022/07/18 11:18:00;;;;;;;3.17;2.10;;;;;;;28.41;34.26;102008.31;5249021;28;20026;-76
2022/07/18 11:20:36;;;;;;;3.70;2.13;;;;;;;28.43;33.98;102005.91;5257308;28;20131;-75
2022/07/18 11:23:21;;;;;;;5.97;2.08;;;;;;;28.80;30.57;102008.88;5255817;28;20361;-71
2022/07/18 11:25:55;;;;;;;5.57;2.30;;;;;;;28.68;30.09;102014.03;5242789;28;20416;-71
2022/07/18 11:28:28;;;;;;;3.50;2.13;;;;;;;28.70;30.16;102005.91;5241793;28;20358;-77
2022/07/18 11:31:08;;;;;;;6.65;2.20;;;;;;;28.53;29.83;102008.13;5251232;28;20112;-76
2022/07/18 11:33:41;;;;;;;10.00;3.40;;;;;;;28.59;31.11;102002.91;5275051;28;20028;-77
2022/07/18 11:36:18;;;;;;;6.88;3.17;;;;;;;28.64;31.08;101994.00;5275788;28;20025;-77
2022/07/18 11:38:55;;;;;;;3.10;2.20;;;;;;;28.68;30.77;102002.59;5244628;28;20052;-75
2022/07/18 11:41:27;;;;;;;11.20;8.68;;;;;;;28.81;30.08;101996.28;5248571;28;20441;-75
2022/07/18 11:43:58;;;;;;;4.93;2.35;;;;;;;29.06;30.43;101997.81;5263981;28;20040;-75
2022/07/18 11:46:29;;;;;;;4.93;2.35;;;;;;;29.17;30.93;101996.75;5265535;28;20025;-76
2022/07/18 11:49:03;;;;;;;6.75;2.75;;;;;;;29.32;30.32;101989.13;5269992;28;20451;-75
2022/07/18 11:51:41;;;;;;;5.60;2.03;;;;;;;29.16;30.86;101994.28;5266399;28;20107;-77
2022/07/18 11:54:22;;;;;;;6.28;2.70;;;;;;;29.23;30.95;101988.66;5261213;28;20024;-78
2022/07/18 11:56:56;;;;;;;4.63;3.20;;;;;;;29.23;30.49;101989.47;5248157;28;20466;-78
2022/07/18 12:00:00;;;;;;;7.72;2.70;;;;;;;29.39;30.14;101986.34;5251937;28;20027;-82
2022/07/18 12:03:04;;;;;;;8.88;3.40;;;;;;;29.44;30.02;101988.03;5225612;28;20032;-77
2022/07/18 12:05:41;;;;;;;5.25;2.83;;;;;;;29.61;29.69;101989.44;5253291;28;20033;-78
2022/07/18 12:08:34;;;;;;;6.05;2.85;;;;;;;29.64;29.75;101985.78;5246446;28;20014;-77
2022/07/18 12:11:17;;;;;;;3.60;2.47;;;;;;;29.76;29.78;101988.38;5241312;28;20041;-78
2022/07/18 12:13:59;;;;;;;6.40;2.42;;;;;;;29.78;29.76;101977.34;5255057;28;20064;-77
2022/07/18 12:16:38;;;;;;;5.68;2.38;;;;;;;29.66;28.46;101971.97;5260742;28;20032;-76
2022/07/18 12:19:18;;;;;;;6.40;2.90;;;;;;;29.90;30.14;101973.38;5259278;28;20048;-78
2022/07/18 12:21:55;;;;;;;3.30;1.98;;;;;;;29.93;29.92;101966.88;5258201;28;20566;-77
2022/07/18 12:24:33;;;;;;;3.90;2.63;;;;;;;30.13;29.83;101958.84;5245690;28;20053;-79
2022/07/18 12:27:23;;;;;;;6.72;2.80;;;;;;;30.22;29.04;101962.19;5250374;28;20047;-78
2022/07/18 12:30:12;;;;;;;7.40;2.78;;;;;;;30.37;28.94;101968.81;5261928;28;20400;-77
2022/07/18 12:32:55;;;;;;;4.45;2.25;;;;;;;30.47;28.99;101955.81;5257826;28;20100;-79
2022/07/18 12:35:32;;;;;;;3.55;2.40;;;;;;;30.48;28.78;101958.28;5262642;28;20469;-77
2022/07/18 12:38:11;;;;;;;6.57;3.05;;;;;;;30.58;29.16;101948.09;5247443;28;20104;-78
2022/07/18 12:40:45;;;;;;;4.57;2.13;;;;;;;30.59;29.58;101944.00;5252145;28;20068;-78
2022/07/18 12:43:23;;;;;;;5.32;2.72;;;;;;;30.74;28.59;101954.28;5256783;28;20036;-77
2022/07/18 12:45:56;;;;;;;10.27;2.15;;;;;;;30.76;28.21;101951.84;5266186;28;20582;-74
2022/07/18 12:48:30;;;;;;;5.20;2.50;;;;;;;30.84;28.21;101951.91;5264692;28;20044;-77
2022/07/18 12:51:07;;;;;;;4.55;2.72;;;;;;;30.82;28.32;101954.38;5243925;28;20029;-81
2022/07/18 12:53:41;;;;;;;5.35;2.38;;;;;;;30.89;27.29;101942.94;5244776;28;20499;-75
2022/07/18 12:56:12;;;;;;;4.20;2.33;;;;;;;31.03;27.32;101945.81;5249616;28;20428;-74
2022/07/18 12:58:44;;;;;;;3.72;2.10;;;;;;;31.05;27.60;101943.38;5264421;28;20080;-76
2022/07/18 13:01:15;;;;;;;5.70;2.72;;;;;;;31.22;27.59;101938.94;5265801;28;20452;-77
2022/07/18 13:03:46;;;;;;;3.60;2.15;;;;;;;31.15;27.85;101939.72;5266172;28;20052;-77
2022/07/18 13:06:18;;;;;;;3.42;2.75;;;;;;;31.19;26.86;101929.09;5258711;28;20025;-73
2022/07/18 13:08:49;;;;;;;3.20;2.00;;;;;;;31.13;26.93;101930.72;5261832;28;20110;-77
2022/07/18 13:11:20;;;;;;;3.55;2.20;;;;;;;31.34;26.71;101921.31;5259507;28;20025;-74
2022/07/18 13:13:51;;;;;;;4.70;2.42;;;;;;;31.51;26.73;101916.88;5265058;28;20033;-75
2022/07/18 13:16:23;;;;;;;3.40;2.67;;;;;;;31.66;26.19;101922.63;5265232;28;20439;-75
2022/07/18 13:18:54;;;;;;;8.00;3.08;;;;;;;31.59;26.01;101912.78;5263321;28;20025;-74
2022/07/18 13:21:26;;;;;;;5.20;2.75;;;;;;;31.77;25.50;101918.50;5260270;28;20017;-75
2022/07/18 13:23:57;;;;;;;8.65;7.75;;;;;;;31.79;25.78;101912.34;5259040;28;20599;-77
2022/07/18 13:26:28;;;;;;;7.82;3.03;;;;;;;31.80;26.24;101909.09;5262434;28;20384;-73
2022/07/18 13:29:00;;;;;;;3.28;2.10;;;;;;;32.05;25.83;101911.94;5264824;28;20021;-77
2022/07/18 13:31:31;;;;;;;6.15;2.67;;;;;;;32.07;25.51;101910.72;5264557;28;20115;-79
2022/07/18 13:34:03;;;;;;;4.82;2.78;;;;;;;32.20;25.38;101911.91;5255610;28;20025;-76
2022/07/18 13:36:34;;;;;;;4.15;2.88;;;;;;;32.26;25.04;101910.22;5283564;28;20055;-76
2022/07/18 13:39:06;;;;;;;8.48;3.53;;;;;;;32.45;25.50;101909.78;5261507;28;20036;-72
2022/07/18 13:41:37;;;;;;;4.43;2.45;;;;;;;32.21;25.57;101908.63;5243884;28;20029;-73
2022/07/18 13:44:09;;;;;;;3.75;2.28;;;;;;;32.39;26.00;101902.84;5257285;28;20009;-75
2022/07/18 13:46:40;;;;;;;4.85;2.47;;;;;;;32.39;25.31;101910.59;5259797;28;20022;-75
2022/07/18 13:49:12;;;;;;;5.72;4.45;;;;;;;32.65;25.02;101897.84;5244058;28;20033;-75
2022/07/18 13:51:43;;;;;;;7.50;6.63;;;;;;;32.64;24.90;101901.91;5257020;28;20548;-75
2022/07/18 13:54:18;;;;;;;5.63;3.25;;;;;;;32.66;24.94;101899.47;5263178;28;20025;-73
2022/07/18 13:56:49;;;;;;;3.42;2.15;;;;;;;32.88;25.16;101895.22;5259690;28;20028;-74
2022/07/18 13:59:21;;;;;;;2.65;2.25;;;;;;;32.88;24.21;101897.28;5256725;28;20477;-74
2022/07/18 14:01:52;;;;;;;6.20;2.30;;;;;;;32.90;24.46;101897.66;5263662;28;20021;-74
2022/07/18 14:04:25;;;;;;;5.35;2.30;;;;;;;32.98;24.10;101896.41;5256018;28;20025;-75
2022/07/18 14:06:57;;;;;;;5.00;2.38;;;;;;;32.96;23.81;101892.31;5256807;28;20079;-72
2022/07/18 14:09:28;;;;;;;5.88;2.55;;;;;;;32.89;23.91;101887.44;5263155;28;20465;-72
2022/07/18 14:11:59;;;;;;;2.33;1.88;;;;;;;32.91;23.77;101888.66;5264331;28;20074;-72
2022/07/18 14:14:31;;;;;;;9.70;6.70;;;;;;;33.17;24.01;101889.31;5265479;28;20538;-76
2022/07/18 14:17:02;;;;;;;14.10;7.47;;;;;;;33.24;24.03;101882.72;5263548;28;20025;-73
2022/07/18 14:19:36;;;;;;;16.65;5.25;;;;;;;33.11;23.66;101879.53;5273190;28;20374;-74
2022/07/18 14:22:09;;;;;;;4.45;2.80;;;;;;;33.17;23.87;101877.00;5263028;28;20025;-75
2022/07/18 14:24:41;;;;;;;4.47;2.83;;;;;;;33.32;23.83;101882.22;5263603;28;20051;-73
2022/07/18 14:27:12;;;;;;;4.20;2.40;;;;;;;33.13;24.17;101877.03;5256105;28;20052;-75
2022/07/18 14:29:43;;;;;;;5.32;2.53;;;;;;;33.20;23.76;101867.53;5277592;28;20024;-74
2022/07/18 14:32:14;;;;;;;6.07;2.53;;;;;;;33.48;23.99;101870.19;5254314;28;20058;-75
2022/07/18 14:34:46;;;;;;;12.23;4.60;;;;;;;33.26;23.92;101868.72;5256414;28;20025;-75
2022/07/18 14:37:17;;;;;;;4.25;2.75;;;;;;;33.26;23.82;101869.56;5259403;28;20043;-74
2022/07/18 14:39:49;;;;;;;4.88;2.53;;;;;;;33.43;23.83;101866.94;5250279;28;20022;-74
2022/07/18 14:42:20;;;;;;;8.57;2.50;;;;;;;33.66;24.14;101869.22;5265977;28;20117;-74
2022/07/18 14:44:52;;;;;;;2.75;2.05;;;;;;;33.92;23.92;101864.84;5263808;28;20340;-75
2022/07/18 14:47:23;;;;;;;4.05;2.20;;;;;;;33.31;23.61;101863.34;5262953;28;20017;-74
2022/07/18 14:49:55;;;;;;;4.70;2.72;;;;;;;33.54;23.18;101868.53;5242048;28;20029;-73
2022/07/18 14:52:26;;;;;;;4.95;3.58;;;;;;;33.34;23.68;101870.31;5242462;28;20017;-74
2022/07/18 14:54:57;;;;;;;5.80;3.17;;;;;;;33.35;23.73;101867.00;5254486;28;20033;-75
2022/07/18 14:57:29;;;;;;;15.90;4.00;;;;;;;33.40;23.71;101867.81;5284086;28;20090;-74
2022/07/18 15:00:03;;;;;;;10.32;2.97;;;;;;;33.43;23.81;101867.75;5290015;28;20027;-75
2022/07/18 15:02:35;;;;;;;5.72;2.90;;;;;;;33.57;23.71;101869.72;5282180;28;20450;-75
2022/07/18 15:05:08;;;;;;;4.82;3.60;;;;;;;33.49;23.87;101868.09;5285619;28;20025;-75
2022/07/18 15:07:39;;;;;;;8.00;3.20;;;;;;;33.31;23.73;101871.97;5293560;28;20028;-74
2022/07/18 15:10:11;;;;;;;4.78;2.90;;;;;;;33.34;23.96;101864.56;5284240;28;20028;-71
2022/07/18 15:12:42;;;;;;;8.15;2.45;;;;;;;33.15;23.44;101863.06;5283054;28;20034;-70
2022/07/18 15:15:13;;;;;;;14.52;3.97;;;;;;;33.10;23.89;101860.63;5286526;28;20024;-70
2022/07/18 15:17:45;;;;;;;3.00;2.08;;;;;;;33.05;24.09;101869.69;5294321;28;20460;-73
2022/07/18 15:20:17;;;;;;;5.22;2.47;;;;;;;33.20;24.13;101847.44;5284231;28;20137;-73
2022/07/18 15:22:48;;;;;;;6.15;2.28;;;;;;;33.04;24.29;101839.34;5292337;28;20054;-74
2022/07/18 15:25:20;;;;;;;7.65;2.90;;;;;;;33.03;24.10;101849.19;5283432;28;20025;-75
2022/07/18 15:27:51;;;;;;;12.35;3.00;;;;;;;32.99;24.13;101834.03;5281169;28;20016;-76
2022/07/18 15:30:22;;;;;;;8.73;2.50;;;;;;;33.05;24.50;101836.03;5285683;28;20024;-75
2022/07/18 15:32:53;;;;;;;5.95;2.80;;;;;;;32.86;24.23;101840.25;5288793;28;20024;-76
2022/07/18 15:35:25;;;;;;;4.70;2.55;;;;;;;32.88;24.63;101834.91;5299418;28;20031;-76
2022/07/18 15:37:56;;;;;;;4.70;2.45;;;;;;;32.86;23.92;101834.50;5302404;28;20415;-77
2022/07/18 15:40:27;;;;;;;4.68;2.13;;;;;;;32.75;24.56;101833.78;5276985;28;20108;-75
2022/07/18 15:42:59;;;;;;;4.60;2.70;;;;;;;33.00;24.37;101821.28;5282846;28;20024;-74
2022/07/18 15:45:30;;;;;;;5.32;2.53;;;;;;;32.91;24.39;101824.63;5282723;28;20032;-75
2022/07/18 15:48:02;;;;;;;8.35;2.70;;;;;;;32.98;23.99;101827.47;5281459;28;20476;-76
2022/07/18 15:50:33;;;;;;;3.97;2.38;;;;;;;32.90;24.40;101829.56;5280825;28;20153;-76
2022/07/18 15:53:05;;;;;;;5.93;2.58;;;;;;;32.77;23.93;101830.47;5281708;28;20032;-76
2022/07/18 15:55:38;;;;;;;2.53;1.98;;;;;;;32.60;24.63;101829.34;5284430;28;20020;-75
2022/07/18 15:58:09;;;;;;;4.82;2.75;;;;;;;32.78;24.12;101821.44;5299736;28;20048;-85
2022/07/18 16:00:41;;;;;;;5.50;2.70;;;;;;;32.64;24.03;101821.53;5296018;28;20029;-77
2022/07/18 16:03:12;;;;;;;5.38;3.25;;;;;;;32.65;24.18;101811.69;5282045;28;20411;-79
2022/07/18 16:05:44;;;;;;;2.30;2.03;;;;;;;32.59;23.96;101822.78;5292013;28;20016;-76
2022/07/18 16:08:15;;;;;;;30.67;27.60;;;;;;;32.75;24.14;101810.81;5295265;28;20024;-75
2022/07/18 16:10:46;;;;;;;9.75;8.13;;;;;;;32.83;23.84;101803.75;5299693;28;20031;-76
2022/07/18 16:13:18;;;;;;;3.72;3.28;;;;;;;32.75;24.34;101810.81;5283871;28;20027;-76
2022/07/18 16:15:49;;;;;;;4.65;2.70;;;;;;;32.83;24.40;101805.81;5304053;28;20107;-81
2022/07/18 16:18:20;;;;;;;5.40;2.80;;;;;;;32.82;24.08;101799.25;5288486;28;20032;-81
2022/07/18 16:20:52;;;;;;;4.28;2.15;;;;;;;32.92;24.06;101809.84;5285365;28;20074;-79
2022/07/18 16:23:23;;;;;;;2.97;1.92;;;;;;;32.80;25.22;101801.75;5271684;28;20394;-80
2022/07/18 16:25:55;;;;;;;4.32;2.55;;;;;;;33.16;25.62;101801.50;5301741;28;20028;-81
2022/07/18 16:28:27;;;;;;;3.03;2.10;;;;;;;32.81;25.38;101803.34;5302635;28;20122;-81
2022/07/18 16:30:59;;;;;;;3.38;2.60;;;;;;;32.83;25.31;101794.34;5304885;28;20020;-82
2022/07/18 16:33:31;;;;;;;2.95;2.05;;;;;;;32.65;25.37;101789.53;5289920;28;20025;-81
2022/07/18 16:36:02;;;;;;;2.85;2.38;;;;;;;32.71;25.54;101798.50;5286681;28;20038;-81
2022/07/18 16:38:34;;;;;;;3.35;2.30;;;;;;;32.70;25.67;101788.28;5291623;28;20024;-81
2022/07/18 16:41:05;;;;;;;4.43;2.58;;;;;;;33.05;25.99;101787.19;5291530;28;20079;-82
2022/07/18 16:43:37;;;;;;;4.75;2.33;;;;;;;32.86;25.00;101782.81;5290400;28;20021;-81
2022/07/18 16:46:10;;;;;;;5.82;2.30;;;;;;;32.89;25.06;101781.97;5307675;28;20041;-76
2022/07/18 16:48:41;;;;;;;5.57;2.40;;;;;;;32.80;25.41;101784.50;5282410;28;20032;-80
2022/07/18 16:51:13;;;;;;;3.50;2.80;;;;;;;32.95;25.54;101779.44;5289126;28;20395;-80
2022/07/18 16:53:45;;;;;;;12.23;11.15;;;;;;;33.07;24.95;101772.41;5293922;28;20031;-81
2022/07/18 16:56:17;;;;;;;8.25;5.63;;;;;;;33.27;25.17;101767.72;5290275;28;20020;-80
2022/07/18 16:58:48;;;;;;;4.38;2.40;;;;;;;33.18;24.99;101770.25;5277181;28;20416;-80
2022/07/18 17:01:20;;;;;;;5.50;2.30;;;;;;;33.07;24.83;101770.34;5284129;28;20375;-80
2022/07/18 17:03:52;;;;;;;5.68;2.40;;;;;;;33.15;24.97;101767.41;5281038;28;20055;-80
2022/07/18 17:06:24;;;;;;;4.07;2.20;;;;;;;32.90;25.04;101772.13;5284979;28;20521;-81
2022/07/18 17:08:55;;;;;;;3.15;2.53;;;;;;;33.24;25.09;101768.56;5297838;28;20024;-81
2022/07/18 17:11:28;;;;;;;2.90;2.58;;;;;;;33.31;25.26;101767.66;5283694;28;20027;-81
2022/07/18 17:14:00;;;;;;;3.15;2.10;;;;;;;33.34;25.41;101761.09;5286290;28;20033;-81
2022/07/18 17:16:31;;;;;;;5.65;3.00;;;;;;;33.09;24.90;101762.13;5286579;28;20462;-81
2022/07/18 17:19:03;;;;;;;4.90;2.45;;;;;;;33.18;25.44;101757.94;5285029;28;20024;-81
2022/07/18 17:21:35;;;;;;;3.67;2.38;;;;;;;33.38;25.78;101761.03;5277931;28;20037;-80
2022/07/18 17:24:07;;;;;;;4.60;2.20;;;;;;;33.35;25.33;101757.78;5306992;28;20077;-80
2022/07/18 17:26:38;;;;;;;4.13;2.25;;;;;;;33.09;25.54;101752.69;5307028;28;20395;-81
2022/07/18 17:29:10;;;;;;;3.80;2.40;;;;;;;33.06;25.74;101756.44;5308098;28;20380;-81
